sensor_id;sensor_type;location;lat;lon;timestamp;P1;durP1;ratioP1;P2;durP2;ratioP2
20669;SDS011;10494;50.868;4.180;2024-03-22T00:00:24;51.63;;;25.92;;
20669;SDS011;10494;50.868;4.180;2024-03-22T00:02:50;49.40;;;25.55;;
20669;SDS011;10494;50.868;4.180;2024-03-22T00:05:16;46.10;;;26.05;;
20669;SDS011;10494;50.868;4.180;2024-03-22T00:07:42;47.80;;;25.52;;
20669;SDS011;10494;50.868;4.180;2024-03-22T00:10:08;47.22;;;27.25;;
20669;SDS011;10494;50.868;4.180;2024-03-22T00:12:33;45.63;;;25.85;;
20669;SDS011;10494;50.868;4.180;2024-03-22T00:14:59;42.05;;;23.90;;
20669;SDS011;10494;50.868;4.180;2024-03-22T00:17:24;41.88;;;23.45;;
20669;SDS011;10494;50.868;4.180;2024-03-22T00:19:50;47.00;;;23.73;;
20669;SDS011;10494;50.868;4.180;2024-03-22T00:22:15;45.17;;;25.20;;
20669;SDS011;10494;50.868;4.180;2024-03-22T00:24:42;42.42;;;24.35;;
20669;SDS011;10494;50.868;4.180;2024-03-22T00:27:08;37.75;;;23.45;;
20669;SDS011;10494;50.868;4.180;2024-03-22T00:29:33;42.95;;;24.50;;
20669;SDS011;10494;50.868;4.180;2024-03-22T00:31:59;43.05;;;24.10;;
20669;SDS011;10494;50.868;4.180;2024-03-22T00:34:25;40.67;;;23.58;;
20669;SDS011;10494;50.868;4.180;2024-03-22T00:36:50;40.22;;;22.52;;
20669;SDS011;10494;50.868;4.180;2024-03-22T00:39:16;39.67;;;23.02;;
20669;SDS011;10494;50.868;4.180;2024-03-22T00:41:42;42.78;;;23.17;;
20669;SDS011;10494;50.868;4.180;2024-03-22T00:44:07;46.03;;;24.25;;
20669;SDS011;10494;50.868;4.180;2024-03-22T00:46:33;41.95;;;22.13;;
20669;SDS011;10494;50.868;4.180;2024-03-22T00:48:59;42.95;;;23.65;;
20669;SDS011;10494;50.868;4.180;2024-03-22T00:51:28;45.83;;;23.13;;
20669;SDS011;10494;50.868;4.180;2024-03-22T00:53:53;45.67;;;24.30;;
20669;SDS011;10494;50.868;4.180;2024-03-22T00:56:19;44.05;;;23.42;;
20669;SDS011;10494;50.868;4.180;2024-03-22T00:58:45;43.97;;;22.95;;
20669;SDS011;10494;50.868;4.180;2024-03-22T01:01:10;38.78;;;22.90;;
20669;SDS011;10494;50.868;4.180;2024-03-22T01:03:36;44.13;;;23.25;;
20669;SDS011;10494;50.868;4.180;2024-03-22T01:06:02;46.65;;;24.25;;
20669;SDS011;10494;50.868;4.180;2024-03-22T01:08:27;45.97;;;25.42;;
20669;SDS011;10494;50.868;4.180;2024-03-22T01:10:53;43.65;;;23.63;;
20669;SDS011;10494;50.868;4.180;2024-03-22T01:13:18;43.40;;;23.85;;
20669;SDS011;10494;50.868;4.180;2024-03-22T01:15:44;50.50;;;23.67;;
20669;SDS011;10494;50.868;4.180;2024-03-22T01:18:11;41.85;;;23.27;;
20669;SDS011;10494;50.868;4.180;2024-03-22T01:20:37;44.63;;;23.95;;
20669;SDS011;10494;50.868;4.180;2024-03-22T01:23:02;47.60;;;23.92;;
20669;SDS011;10494;50.868;4.180;2024-03-22T01:25:29;42.78;;;23.27;;
20669;SDS011;10494;50.868;4.180;2024-03-22T01:27:55;45.08;;;24.17;;
20669;SDS011;10494;50.868;4.180;2024-03-22T01:30:21;41.60;;;23.63;;
20669;SDS011;10494;50.868;4.180;2024-03-22T01:32:47;53.15;;;25.05;;
20669;SDS011;10494;50.868;4.180;2024-03-22T01:35:12;43.90;;;24.25;;
20669;SDS011;10494;50.868;4.180;2024-03-22T01:37:38;49.72;;;24.35;;
20669;SDS011;10494;50.868;4.180;2024-03-22T01:40:04;47.55;;;25.13;;
20669;SDS011;10494;50.868;4.180;2024-03-22T01:42:30;50.03;;;23.27;;
20669;SDS011;10494;50.868;4.180;2024-03-22T01:44:56;42.75;;;23.10;;
20669;SDS011;10494;50.868;4.180;2024-03-22T01:47:21;43.90;;;23.20;;
20669;SDS011;10494;50.868;4.180;2024-03-22T01:49:48;46.38;;;22.63;;
20669;SDS011;10494;50.868;4.180;2024-03-22T01:52:15;42.53;;;22.70;;
20669;SDS011;10494;50.868;4.180;2024-03-22T01:54:41;41.92;;;22.27;;
20669;SDS011;10494;50.868;4.180;2024-03-22T01:57:07;44.80;;;24.08;;
20669;SDS011;10494;50.868;4.180;2024-03-22T01:59:33;40.28;;;23.00;;
20669;SDS011;10494;50.868;4.180;2024-03-22T02:01:59;44.58;;;23.38;;
20669;SDS011;10494;50.868;4.180;2024-03-22T02:04:25;47.88;;;23.67;;
20669;SDS011;10494;50.868;4.180;2024-03-22T02:06:51;49.42;;;23.92;;
20669;SDS011;10494;50.868;4.180;2024-03-22T02:09:16;45.33;;;22.73;;
20669;SDS011;10494;50.868;4.180;2024-03-22T02:11:42;43.35;;;22.60;;
20669;SDS011;10494;50.868;4.180;2024-03-22T02:14:09;43.78;;;22.42;;
20669;SDS011;10494;50.868;4.180;2024-03-22T02:16:35;44.20;;;22.00;;
20669;SDS011;10494;50.868;4.180;2024-03-22T02:19:00;43.65;;;21.73;;
20669;SDS011;10494;50.868;4.180;2024-03-22T02:21:26;38.03;;;20.80;;
20669;SDS011;10494;50.868;4.180;2024-03-22T02:23:52;41.10;;;20.77;;
20669;SDS011;10494;50.868;4.180;2024-03-22T02:26:17;34.08;;;18.65;;
20669;SDS011;10494;50.868;4.180;2024-03-22T02:28:43;39.05;;;19.92;;
20669;SDS011;10494;50.868;4.180;2024-03-22T02:31:08;39.40;;;19.65;;
20669;SDS011;10494;50.868;4.180;2024-03-22T02:33:34;41.53;;;18.92;;
20669;SDS011;10494;50.868;4.180;2024-03-22T02:35:59;38.85;;;19.33;;
20669;SDS011;10494;50.868;4.180;2024-03-22T02:38:25;35.75;;;18.58;;
20669;SDS011;10494;50.868;4.180;2024-03-22T02:40:51;34.35;;;18.25;;
20669;SDS011;10494;50.868;4.180;2024-03-22T02:43:17;33.17;;;19.85;;
20669;SDS011;10494;50.868;4.180;2024-03-22T02:45:44;37.40;;;18.63;;
20669;SDS011;10494;50.868;4.180;2024-03-22T02:48:10;36.10;;;19.02;;
20669;SDS011;10494;50.868;4.180;2024-03-22T02:50:36;41.72;;;18.48;;
20669;SDS011;10494;50.868;4.180;2024-03-22T02:53:02;43.95;;;19.17;;
20669;SDS011;10494;50.868;4.180;2024-03-22T02:55:29;36.03;;;18.45;;
20669;SDS011;10494;50.868;4.180;2024-03-22T02:57:58;35.55;;;18.55;;
20669;SDS011;10494;50.868;4.180;2024-03-22T03:00:23;32.42;;;17.77;;
20669;SDS011;10494;50.868;4.180;2024-03-22T03:02:50;35.38;;;17.52;;
20669;SDS011;10494;50.868;4.180;2024-03-22T03:05:15;30.48;;;16.55;;
20669;SDS011;10494;50.868;4.180;2024-03-22T03:07:41;37.15;;;18.30;;
20669;SDS011;10494;50.868;4.180;2024-03-22T03:10:07;30.05;;;15.35;;
20669;SDS011;10494;50.868;4.180;2024-03-22T03:12:33;46.83;;;17.55;;
20669;SDS011;10494;50.868;4.180;2024-03-22T03:14:58;35.47;;;17.30;;
20669;SDS011;10494;50.868;4.180;2024-03-22T03:17:24;31.92;;;17.13;;
20669;SDS011;10494;50.868;4.180;2024-03-22T03:19:50;33.95;;;17.08;;
20669;SDS011;10494;50.868;4.180;2024-03-22T03:22:15;35.47;;;18.73;;
20669;SDS011;10494;50.868;4.180;2024-03-22T03:24:41;34.78;;;16.30;;
20669;SDS011;10494;50.868;4.180;2024-03-22T03:27:07;35.03;;;16.65;;
20669;SDS011;10494;50.868;4.180;2024-03-22T03:29:32;34.88;;;16.35;;
20669;SDS011;10494;50.868;4.180;2024-03-22T03:31:58;32.85;;;16.90;;
20669;SDS011;10494;50.868;4.180;2024-03-22T03:34:24;37.90;;;17.25;;
20669;SDS011;10494;50.868;4.180;2024-03-22T03:36:49;33.10;;;16.83;;
20669;SDS011;10494;50.868;4.180;2024-03-22T03:39:15;34.08;;;17.55;;
20669;SDS011;10494;50.868;4.180;2024-03-22T03:41:40;32.58;;;16.13;;
20669;SDS011;10494;50.868;4.180;2024-03-22T03:44:06;33.45;;;16.90;;
20669;SDS011;10494;50.868;4.180;2024-03-22T03:46:32;34.10;;;17.20;;
20669;SDS011;10494;50.868;4.180;2024-03-22T03:48:57;32.58;;;16.48;;
20669;SDS011;10494;50.868;4.180;2024-03-22T03:51:23;34.28;;;16.25;;
20669;SDS011;10494;50.868;4.180;2024-03-22T03:53:49;35.53;;;16.00;;
20669;SDS011;10494;50.868;4.180;2024-03-22T03:56:14;35.40;;;18.48;;
20669;SDS011;10494;50.868;4.180;2024-03-22T03:58:40;34.42;;;17.48;;
20669;SDS011;10494;50.868;4.180;2024-03-22T04:01:08;33.25;;;17.02;;
20669;SDS011;10494;50.868;4.180;2024-03-22T04:03:35;31.27;;;15.93;;
20669;SDS011;10494;50.868;4.180;2024-03-22T04:06:00;36.45;;;17.35;;
20669;SDS011;10494;50.868;4.180;2024-03-22T04:08:26;33.90;;;16.85;;
20669;SDS011;10494;50.868;4.180;2024-03-22T04:10:55;32.53;;;14.98;;
20669;SDS011;10494;50.868;4.180;2024-03-22T04:13:22;31.83;;;14.93;;
20669;SDS011;10494;50.868;4.180;2024-03-22T04:15:51;28.48;;;14.10;;
20669;SDS011;10494;50.868;4.180;2024-03-22T04:18:17;32.83;;;15.13;;
20669;SDS011;10494;50.868;4.180;2024-03-22T04:20:52;28.73;;;14.05;;
20669;SDS011;10494;50.868;4.180;2024-03-22T04:23:22;31.83;;;16.00;;
20669;SDS011;10494;50.868;4.180;2024-03-22T04:25:54;34.22;;;15.77;;
20669;SDS011;10494;50.868;4.180;2024-03-22T04:28:21;37.25;;;16.17;;
20669;SDS011;10494;50.868;4.180;2024-03-22T04:33:23;32.60;;;16.20;;
20669;SDS011;10494;50.868;4.180;2024-03-22T04:35:49;31.77;;;15.85;;
20669;SDS011;10494;50.868;4.180;2024-03-22T04:38:14;35.03;;;16.40;;
20669;SDS011;10494;50.868;4.180;2024-03-22T04:40:40;30.45;;;15.27;;
20669;SDS011;10494;50.868;4.180;2024-03-22T04:43:06;29.13;;;15.15;;
20669;SDS011;10494;50.868;4.180;2024-03-22T04:45:31;35.92;;;15.45;;
20669;SDS011;10494;50.868;4.180;2024-03-22T04:47:57;27.48;;;15.30;;
20669;SDS011;10494;50.868;4.180;2024-03-22T04:50:23;32.15;;;16.45;;
20669;SDS011;10494;50.868;4.180;2024-03-22T04:52:48;32.30;;;15.50;;
20669;SDS011;10494;50.868;4.180;2024-03-22T04:55:14;30.80;;;16.33;;
20669;SDS011;10494;50.868;4.180;2024-03-22T04:57:39;33.20;;;16.13;;
20669;SDS011;10494;50.868;4.180;2024-03-22T05:00:05;29.05;;;16.17;;
20669;SDS011;10494;50.868;4.180;2024-03-22T05:02:33;33.45;;;17.08;;
20669;SDS011;10494;50.868;4.180;2024-03-22T05:04:59;28.90;;;15.77;;
20669;SDS011;10494;50.868;4.180;2024-03-22T05:07:25;30.13;;;15.38;;
20669;SDS011;10494;50.868;4.180;2024-03-22T05:09:50;34.03;;;17.23;;
20669;SDS011;10494;50.868;4.180;2024-03-22T05:12:16;28.20;;;15.70;;
20669;SDS011;10494;50.868;4.180;2024-03-22T05:14:41;35.55;;;16.95;;
20669;SDS011;10494;50.868;4.180;2024-03-22T05:17:07;30.40;;;16.75;;
20669;SDS011;10494;50.868;4.180;2024-03-22T05:19:33;32.38;;;16.70;;
20669;SDS011;10494;50.868;4.180;2024-03-22T05:21:58;34.22;;;17.08;;
20669;SDS011;10494;50.868;4.180;2024-03-22T05:24:25;33.92;;;16.77;;
20669;SDS011;10494;50.868;4.180;2024-03-22T05:26:51;31.95;;;16.92;;
20669;SDS011;10494;50.868;4.180;2024-03-22T05:29:16;31.55;;;16.08;;
20669;SDS011;10494;50.868;4.180;2024-03-22T05:31:46;31.00;;;17.52;;
20669;SDS011;10494;50.868;4.180;2024-03-22T05:34:16;30.98;;;15.35;;
20669;SDS011;10494;50.868;4.180;2024-03-22T05:36:42;30.63;;;15.52;;
20669;SDS011;10494;50.868;4.180;2024-03-22T05:39:08;34.25;;;16.60;;
20669;SDS011;10494;50.868;4.180;2024-03-22T05:41:36;30.50;;;16.50;;
20669;SDS011;10494;50.868;4.180;2024-03-22T05:44:01;34.17;;;17.50;;
20669;SDS011;10494;50.868;4.180;2024-03-22T05:46:28;38.10;;;17.48;;
20669;SDS011;10494;50.868;4.180;2024-03-22T05:48:54;37.00;;;16.83;;
20669;SDS011;10494;50.868;4.180;2024-03-22T05:51:20;28.05;;;15.25;;
20669;SDS011;10494;50.868;4.180;2024-03-22T05:53:45;34.38;;;17.08;;
20669;SDS011;10494;50.868;4.180;2024-03-22T05:56:11;31.80;;;15.63;;
20669;SDS011;10494;50.868;4.180;2024-03-22T05:58:36;32.75;;;16.73;;
20669;SDS011;10494;50.868;4.180;2024-03-22T06:01:02;30.33;;;15.98;;
20669;SDS011;10494;50.868;4.180;2024-03-22T06:03:28;37.72;;;16.92;;
20669;SDS011;10494;50.868;4.180;2024-03-22T06:05:54;29.65;;;15.57;;
20669;SDS011;10494;50.868;4.180;2024-03-22T06:08:24;38.00;;;18.15;;
20669;SDS011;10494;50.868;4.180;2024-03-22T06:10:50;32.58;;;16.00;;
20669;SDS011;10494;50.868;4.180;2024-03-22T06:13:17;31.85;;;15.85;;
20669;SDS011;10494;50.868;4.180;2024-03-22T06:15:43;33.90;;;14.77;;
20669;SDS011;10494;50.868;4.180;2024-03-22T06:18:11;27.92;;;14.32;;
20669;SDS011;10494;50.868;4.180;2024-03-22T06:20:37;29.55;;;14.18;;
20669;SDS011;10494;50.868;4.180;2024-03-22T06:23:03;25.50;;;12.90;;
20669;SDS011;10494;50.868;4.180;2024-03-22T06:25:28;24.98;;;12.60;;
20669;SDS011;10494;50.868;4.180;2024-03-22T06:27:54;25.65;;;12.32;;
20669;SDS011;10494;50.868;4.180;2024-03-22T06:30:20;20.75;;;11.25;;
20669;SDS011;10494;50.868;4.180;2024-03-22T06:32:45;24.25;;;11.82;;
20669;SDS011;10494;50.868;4.180;2024-03-22T06:35:11;20.90;;;11.43;;
20669;SDS011;10494;50.868;4.180;2024-03-22T06:37:38;20.38;;;10.27;;
20669;SDS011;10494;50.868;4.180;2024-03-22T06:40:05;23.30;;;10.52;;
20669;SDS011;10494;50.868;4.180;2024-03-22T06:42:32;18.60;;;10.25;;
20669;SDS011;10494;50.868;4.180;2024-03-22T06:44:57;15.73;;;9.18;;
20669;SDS011;10494;50.868;4.180;2024-03-22T06:47:23;16.65;;;9.38;;
20669;SDS011;10494;50.868;4.180;2024-03-22T06:49:49;20.25;;;9.55;;
20669;SDS011;10494;50.868;4.180;2024-03-22T06:52:14;19.13;;;9.73;;
20669;SDS011;10494;50.868;4.180;2024-03-22T06:54:40;15.50;;;8.63;;
20669;SDS011;10494;50.868;4.180;2024-03-22T06:57:06;17.98;;;8.77;;
20669;SDS011;10494;50.868;4.180;2024-03-22T06:59:32;15.85;;;9.27;;
20669;SDS011;10494;50.868;4.180;2024-03-22T07:01:57;16.27;;;8.32;;
20669;SDS011;10494;50.868;4.180;2024-03-22T07:04:23;16.17;;;8.30;;
20669;SDS011;10494;50.868;4.180;2024-03-22T07:06:49;14.77;;;8.30;;
20669;SDS011;10494;50.868;4.180;2024-03-22T07:09:14;10.82;;;6.68;;
20669;SDS011;10494;50.868;4.180;2024-03-22T07:11:40;14.00;;;7.57;;
20669;SDS011;10494;50.868;4.180;2024-03-22T07:14:06;15.65;;;7.70;;
20669;SDS011;10494;50.868;4.180;2024-03-22T07:16:32;14.55;;;7.65;;
20669;SDS011;10494;50.868;4.180;2024-03-22T07:18:57;13.05;;;7.55;;
20669;SDS011;10494;50.868;4.180;2024-03-22T07:21:26;13.88;;;7.88;;
20669;SDS011;10494;50.868;4.180;2024-03-22T07:23:52;15.70;;;8.05;;
20669;SDS011;10494;50.868;4.180;2024-03-22T07:26:17;13.98;;;7.40;;
20669;SDS011;10494;50.868;4.180;2024-03-22T07:28:43;12.23;;;7.43;;
20669;SDS011;10494;50.868;4.180;2024-03-22T07:31:08;16.75;;;7.85;;
20669;SDS011;10494;50.868;4.180;2024-03-22T07:33:34;13.93;;;7.28;;
20669;SDS011;10494;50.868;4.180;2024-03-22T07:36:03;15.65;;;7.72;;
20669;SDS011;10494;50.868;4.180;2024-03-22T07:38:29;12.90;;;7.60;;
20669;SDS011;10494;50.868;4.180;2024-03-22T07:40:54;15.90;;;7.30;;
20669;SDS011;10494;50.868;4.180;2024-03-22T07:43:20;16.65;;;8.05;;
20669;SDS011;10494;50.868;4.180;2024-03-22T07:45:46;15.65;;;7.90;;
20669;SDS011;10494;50.868;4.180;2024-03-22T07:48:11;15.40;;;7.88;;
20669;SDS011;10494;50.868;4.180;2024-03-22T07:50:37;13.40;;;8.13;;
20669;SDS011;10494;50.868;4.180;2024-03-22T07:53:02;13.43;;;7.72;;
20669;SDS011;10494;50.868;4.180;2024-03-22T07:55:28;17.77;;;7.35;;
20669;SDS011;10494;50.868;4.180;2024-03-22T07:57:54;14.60;;;7.47;;
20669;SDS011;10494;50.868;4.180;2024-03-22T08:00:19;12.77;;;6.80;;
20669;SDS011;10494;50.868;4.180;2024-03-22T08:02:45;13.13;;;6.95;;
20669;SDS011;10494;50.868;4.180;2024-03-22T08:05:10;11.70;;;7.07;;
20669;SDS011;10494;50.868;4.180;2024-03-22T08:07:36;17.63;;;8.07;;
20669;SDS011;10494;50.868;4.180;2024-03-22T08:10:02;13.65;;;7.82;;
20669;SDS011;10494;50.868;4.180;2024-03-22T08:12:29;13.75;;;8.02;;
20669;SDS011;10494;50.868;4.180;2024-03-22T08:14:55;11.48;;;7.00;;
20669;SDS011;10494;50.868;4.180;2024-03-22T08:17:20;19.17;;;8.43;;
20669;SDS011;10494;50.868;4.180;2024-03-22T08:19:47;16.58;;;7.53;;
20669;SDS011;10494;50.868;4.180;2024-03-22T08:22:13;13.25;;;7.55;;
20669;SDS011;10494;50.868;4.180;2024-03-22T08:24:39;17.33;;;8.52;;
20669;SDS011;10494;50.868;4.180;2024-03-22T08:27:05;12.35;;;7.68;;
20669;SDS011;10494;50.868;4.180;2024-03-22T08:29:30;16.13;;;8.43;;
20669;SDS011;10494;50.868;4.180;2024-03-22T08:31:56;16.08;;;9.02;;
20669;SDS011;10494;50.868;4.180;2024-03-22T08:34:22;16.67;;;8.50;;
20669;SDS011;10494;50.868;4.180;2024-03-22T08:36:47;17.35;;;8.95;;
20669;SDS011;10494;50.868;4.180;2024-03-22T08:39:13;16.48;;;9.55;;
20669;SDS011;10494;50.868;4.180;2024-03-22T08:41:40;16.83;;;9.13;;
20669;SDS011;10494;50.868;4.180;2024-03-22T08:44:05;16.83;;;9.10;;
20669;SDS011;10494;50.868;4.180;2024-03-22T08:46:32;20.83;;;9.70;;
20669;SDS011;10494;50.868;4.180;2024-03-22T08:48:58;17.73;;;9.45;;
20669;SDS011;10494;50.868;4.180;2024-03-22T08:51:23;16.88;;;8.98;;
20669;SDS011;10494;50.868;4.180;2024-03-22T08:53:49;17.13;;;9.10;;
20669;SDS011;10494;50.868;4.180;2024-03-22T08:56:15;17.90;;;9.13;;
20669;SDS011;10494;50.868;4.180;2024-03-22T08:58:41;17.85;;;8.88;;
20669;SDS011;10494;50.868;4.180;2024-03-22T09:01:06;19.98;;;10.05;;
20669;SDS011;10494;50.868;4.180;2024-03-22T09:03:34;22.95;;;9.95;;
20669;SDS011;10494;50.868;4.180;2024-03-22T09:06:00;17.15;;;10.05;;
20669;SDS011;10494;50.868;4.180;2024-03-22T09:08:27;18.00;;;8.63;;
20669;SDS011;10494;50.868;4.180;2024-03-22T09:10:54;16.92;;;9.50;;
20669;SDS011;10494;50.868;4.180;2024-03-22T09:13:20;16.48;;;9.93;;
20669;SDS011;10494;50.868;4.180;2024-03-22T09:15:45;22.05;;;9.98;;
20669;SDS011;10494;50.868;4.180;2024-03-22T09:18:11;22.88;;;9.55;;
20669;SDS011;10494;50.868;4.180;2024-03-22T09:20:37;23.60;;;9.90;;
20669;SDS011;10494;50.868;4.180;2024-03-22T09:23:02;15.85;;;8.98;;
20669;SDS011;10494;50.868;4.180;2024-03-22T09:25:29;16.33;;;9.07;;
20669;SDS011;10494;50.868;4.180;2024-03-22T09:27:54;16.98;;;8.23;;
20669;SDS011;10494;50.868;4.180;2024-03-22T09:30:20;19.40;;;9.07;;
20669;SDS011;10494;50.868;4.180;2024-03-22T09:32:47;15.93;;;8.85;;
20669;SDS011;10494;50.868;4.180;2024-03-22T09:35:12;24.05;;;10.45;;
20669;SDS011;10494;50.868;4.180;2024-03-22T09:37:42;17.23;;;9.38;;
20669;SDS011;10494;50.868;4.180;2024-03-22T09:40:09;20.25;;;10.18;;
20669;SDS011;10494;50.868;4.180;2024-03-22T09:42:37;21.52;;;10.63;;
20669;SDS011;10494;50.868;4.180;2024-03-22T09:45:09;19.17;;;10.70;;
20669;SDS011;10494;50.868;4.180;2024-03-22T09:47:36;20.48;;;11.38;;
20669;SDS011;10494;50.868;4.180;2024-03-22T09:50:02;22.35;;;11.13;;
20669;SDS011;10494;50.868;4.180;2024-03-22T09:52:32;20.70;;;10.00;;
20669;SDS011;10494;50.868;4.180;2024-03-22T09:54:59;19.70;;;10.73;;
20669;SDS011;10494;50.868;4.180;2024-03-22T09:57:24;20.73;;;9.52;;
20669;SDS011;10494;50.868;4.180;2024-03-22T09:59:51;14.23;;;8.90;;
20669;SDS011;10494;50.868;4.180;2024-03-22T10:02:16;19.60;;;9.95;;
20669;SDS011;10494;50.868;4.180;2024-03-22T10:04:43;15.32;;;9.60;;
20669;SDS011;10494;50.868;4.180;2024-03-22T10:07:08;20.02;;;9.90;;
20669;SDS011;10494;50.868;4.180;2024-03-22T10:09:35;17.38;;;8.95;;
20669;SDS011;10494;50.868;4.180;2024-03-22T10:12:01;14.40;;;8.70;;
20669;SDS011;10494;50.868;4.180;2024-03-22T10:14:28;18.50;;;9.80;;
20669;SDS011;10494;50.868;4.180;2024-03-22T10:16:55;23.17;;;9.95;;
20669;SDS011;10494;50.868;4.180;2024-03-22T10:19:22;14.77;;;9.05;;
20669;SDS011;10494;50.868;4.180;2024-03-22T10:21:48;17.42;;;8.57;;
20669;SDS011;10494;50.868;4.180;2024-03-22T10:24:28;12.27;;;7.88;;
20669;SDS011;10494;50.868;4.180;2024-03-22T10:26:55;16.75;;;8.98;;
20669;SDS011;10494;50.868;4.180;2024-03-22T10:29:21;14.80;;;8.45;;
20669;SDS011;10494;50.868;4.180;2024-03-22T10:31:53;21.80;;;8.52;;
20669;SDS011;10494;50.868;4.180;2024-03-22T10:34:22;15.05;;;8.15;;
20669;SDS011;10494;50.868;4.180;2024-03-22T10:36:49;16.17;;;8.02;;
20669;SDS011;10494;50.868;4.180;2024-03-22T10:39:18;18.65;;;8.73;;
20669;SDS011;10494;50.868;4.180;2024-03-22T10:41:45;19.30;;;8.98;;
20669;SDS011;10494;50.868;4.180;2024-03-22T10:44:11;19.65;;;8.40;;
20669;SDS011;10494;50.868;4.180;2024-03-22T10:46:37;16.52;;;8.25;;
20669;SDS011;10494;50.868;4.180;2024-03-22T10:49:05;16.85;;;7.47;;
20669;SDS011;10494;50.868;4.180;2024-03-22T10:51:31;14.02;;;7.47;;
20669;SDS011;10494;50.868;4.180;2024-03-22T10:54:01;19.15;;;7.55;;
20669;SDS011;10494;50.868;4.180;2024-03-22T10:56:28;16.58;;;7.88;;
20669;SDS011;10494;50.868;4.180;2024-03-22T10:58:55;11.73;;;7.43;;
20669;SDS011;10494;50.868;4.180;2024-03-22T11:01:21;18.20;;;7.82;;
20669;SDS011;10494;50.868;4.180;2024-03-22T11:03:48;17.33;;;8.50;;
20669;SDS011;10494;50.868;4.180;2024-03-22T11:06:14;17.15;;;8.38;;
20669;SDS011;10494;50.868;4.180;2024-03-22T11:08:44;17.88;;;8.43;;
20669;SDS011;10494;50.868;4.180;2024-03-22T11:11:14;17.52;;;7.90;;
20669;SDS011;10494;50.868;4.180;2024-03-22T11:13:43;13.20;;;7.90;;
20669;SDS011;10494;50.868;4.180;2024-03-22T11:16:11;15.55;;;8.18;;
20669;SDS011;10494;50.868;4.180;2024-03-22T11:18:37;11.52;;;7.68;;
20669;SDS011;10494;50.868;4.180;2024-03-22T11:21:02;14.60;;;8.25;;
20669;SDS011;10494;50.868;4.180;2024-03-22T11:23:32;16.88;;;8.18;;
20669;SDS011;10494;50.868;4.180;2024-03-22T11:25:58;18.90;;;8.75;;
20669;SDS011;10494;50.868;4.180;2024-03-22T11:28:24;16.27;;;8.45;;
20669;SDS011;10494;50.868;4.180;2024-03-22T11:30:49;13.05;;;7.40;;
20669;SDS011;10494;50.868;4.180;2024-03-22T11:33:15;13.15;;;7.20;;
20669;SDS011;10494;50.868;4.180;2024-03-22T11:35:41;15.23;;;6.70;;
20669;SDS011;10494;50.868;4.180;2024-03-22T11:38:08;15.05;;;7.35;;
20669;SDS011;10494;50.868;4.180;2024-03-22T11:40:33;13.13;;;7.13;;
20669;SDS011;10494;50.868;4.180;2024-03-22T11:42:59;19.27;;;7.43;;
20669;SDS011;10494;50.868;4.180;2024-03-22T11:45:26;9.48;;;6.13;;
20669;SDS011;10494;50.868;4.180;2024-03-22T11:47:53;12.52;;;6.20;;
20669;SDS011;10494;50.868;4.180;2024-03-22T11:50:19;14.48;;;7.15;;
20669;SDS011;10494;50.868;4.180;2024-03-22T11:52:44;12.70;;;6.82;;
20669;SDS011;10494;50.868;4.180;2024-03-22T11:55:14;14.25;;;6.20;;
20669;SDS011;10494;50.868;4.180;2024-03-22T11:57:40;22.05;;;6.65;;
20669;SDS011;10494;50.868;4.180;2024-03-22T12:00:06;14.73;;;6.07;;
20669;SDS011;10494;50.868;4.180;2024-03-22T12:02:37;13.43;;;6.30;;
20669;SDS011;10494;50.868;4.180;2024-03-22T12:05:04;11.48;;;7.00;;
20669;SDS011;10494;50.868;4.180;2024-03-22T12:07:30;11.48;;;6.05;;
20669;SDS011;10494;50.868;4.180;2024-03-22T12:09:57;15.15;;;6.78;;
20669;SDS011;10494;50.868;4.180;2024-03-22T12:12:23;14.82;;;6.75;;
20669;SDS011;10494;50.868;4.180;2024-03-22T12:14:49;12.43;;;6.78;;
20669;SDS011;10494;50.868;4.180;2024-03-22T12:17:17;15.50;;;6.60;;
20669;SDS011;10494;50.868;4.180;2024-03-22T12:19:43;11.55;;;5.80;;
20669;SDS011;10494;50.868;4.180;2024-03-22T12:22:09;12.65;;;6.13;;
20669;SDS011;10494;50.868;4.180;2024-03-22T12:24:35;16.30;;;6.65;;
20669;SDS011;10494;50.868;4.180;2024-03-22T12:27:01;15.15;;;6.78;;
20669;SDS011;10494;50.868;4.180;2024-03-22T12:29:27;17.92;;;7.28;;
20669;SDS011;10494;50.868;4.180;2024-03-22T12:31:53;23.25;;;7.97;;
20669;SDS011;10494;50.868;4.180;2024-03-22T12:34:18;13.93;;;6.90;;
20669;SDS011;10494;50.868;4.180;2024-03-22T12:36:44;13.85;;;7.30;;
20669;SDS011;10494;50.868;4.180;2024-03-22T12:39:09;13.65;;;6.18;;
20669;SDS011;10494;50.868;4.180;2024-03-22T12:41:35;12.93;;;6.30;;
20669;SDS011;10494;50.868;4.180;2024-03-22T12:44:01;10.20;;;5.60;;
20669;SDS011;10494;50.868;4.180;2024-03-22T12:46:26;23.08;;;6.70;;
20669;SDS011;10494;50.868;4.180;2024-03-22T12:48:52;13.05;;;6.75;;
20669;SDS011;10494;50.868;4.180;2024-03-22T12:51:18;15.82;;;6.57;;
20669;SDS011;10494;50.868;4.180;2024-03-22T12:53:45;12.77;;;6.38;;
20669;SDS011;10494;50.868;4.180;2024-03-22T12:56:11;13.23;;;6.00;;
20669;SDS011;10494;50.868;4.180;2024-03-22T12:58:37;20.58;;;6.47;;
20669;SDS011;10494;50.868;4.180;2024-03-22T13:01:03;14.15;;;6.30;;
20669;SDS011;10494;50.868;4.180;2024-03-22T13:03:30;18.30;;;6.60;;
20669;SDS011;10494;50.868;4.180;2024-03-22T13:05:59;10.88;;;6.20;;
20669;SDS011;10494;50.868;4.180;2024-03-22T13:08:24;14.73;;;5.30;;
20669;SDS011;10494;50.868;4.180;2024-03-22T13:10:50;17.45;;;5.65;;
20669;SDS011;10494;50.868;4.180;2024-03-22T13:13:17;15.43;;;6.20;;
20669;SDS011;10494;50.868;4.180;2024-03-22T13:15:43;9.18;;;4.78;;
20669;SDS011;10494;50.868;4.180;2024-03-22T13:18:08;14.82;;;5.45;;
20669;SDS011;10494;50.868;4.180;2024-03-22T13:20:37;16.55;;;5.95;;
20669;SDS011;10494;50.868;4.180;2024-03-22T13:23:03;13.75;;;5.50;;
20669;SDS011;10494;50.868;4.180;2024-03-22T13:25:29;15.20;;;5.47;;
20669;SDS011;10494;50.868;4.180;2024-03-22T13:27:55;8.60;;;5.35;;
20669;SDS011;10494;50.868;4.180;2024-03-22T13:30:21;11.82;;;6.20;;
20669;SDS011;10494;50.868;4.180;2024-03-22T13:32:47;13.93;;;5.63;;
20669;SDS011;10494;50.868;4.180;2024-03-22T13:35:13;13.60;;;5.88;;
20669;SDS011;10494;50.868;4.180;2024-03-22T13:37:40;15.07;;;5.57;;
20669;SDS011;10494;50.868;4.180;2024-03-22T13:40:06;10.25;;;5.03;;
20669;SDS011;10494;50.868;4.180;2024-03-22T13:42:32;15.05;;;5.78;;
20669;SDS011;10494;50.868;4.180;2024-03-22T13:44:58;10.18;;;5.03;;
20669;SDS011;10494;50.868;4.180;2024-03-22T13:47:23;12.93;;;6.35;;
20669;SDS011;10494;50.868;4.180;2024-03-22T13:49:51;11.95;;;5.30;;
20669;SDS011;10494;50.868;4.180;2024-03-22T13:52:17;15.25;;;6.65;;
20669;SDS011;10494;50.868;4.180;2024-03-22T13:54:43;19.13;;;6.40;;
20669;SDS011;10494;50.868;4.180;2024-03-22T13:57:08;14.77;;;6.00;;
20669;SDS011;10494;50.868;4.180;2024-03-22T13:59:34;14.95;;;5.95;;
20669;SDS011;10494;50.868;4.180;2024-03-22T14:02:01;10.13;;;5.55;;
20669;SDS011;10494;50.868;4.180;2024-03-22T14:04:26;10.90;;;5.97;;
20669;SDS011;10494;50.868;4.180;2024-03-22T14:06:54;11.07;;;6.20;;
20669;SDS011;10494;50.868;4.180;2024-03-22T14:09:19;14.25;;;6.18;;
20669;SDS011;10494;50.868;4.180;2024-03-22T14:11:45;11.93;;;6.13;;
20669;SDS011;10494;50.868;4.180;2024-03-22T14:14:14;11.70;;;5.88;;
20669;SDS011;10494;50.868;4.180;2024-03-22T14:16:40;13.60;;;6.63;;
20669;SDS011;10494;50.868;4.180;2024-03-22T14:19:09;11.57;;;6.68;;
20669;SDS011;10494;50.868;4.180;2024-03-22T14:21:35;15.48;;;6.97;;
20669;SDS011;10494;50.868;4.180;2024-03-22T14:24:03;13.63;;;6.80;;